Airfield :
LOGIN :

Register | Disclaimer

   EN    FR    IT 

 










Legend :    VFR   Marginal VFR   IFR   Intensive IFR   Very Intensive IFR
Visi :
Ceiling :
>= 8 km
>= 3000ft
5 to 8 km
1000 to 3000 ft
1500m to 5 km
500 to 1000 ft
800 to 1500m
200 to 500 ft
< 800m
< 200 ft
Symbols :   Thunderstorms  Fog  Heavy snow  Heavy precipitations  Wind > 20 kt
SIGMETs :     Misc.  Thunderstorms  Icing  Turbulence  Mountain Waves  Volcanic Ashes







- Airport Elevation : 162 ft
- IATA code : BOD
- Download approach charts


LFBD - Bordeaux / Merignac

CURRENT METAR :
  • 100100Z AUTO 27005KT 9999 SCT034 SCT040 BKN049 08/07 Q1033 NOSIG

EXPIRED METARs :
  • 100030Z AUTO 26006KT 9999 SCT036 08/07 Q1033 NOSIG
  • 100000Z AUTO 26004KT 9999 SCT031 SCT037 08/07 Q1033 NOSIG
  • 092330Z AUTO 25005KT 9999 BKN028 BKN033 08/07 Q1033 NOSIG
  • 092300Z AUTO 27006KT 9999 FEW044 09/07 Q1033 NOSIG
  • 092230Z AUTO 26004KT 9999 FEW023 BKN038 BKN052 09/07 Q1032 NOSIG

TAF TAF LFBD
Valid from the 10 at 00:00 until the 11 at 06:00 UTC


092300Z 1000/1106 28005KT 9999 BKN030 TX13/1013Z TN05/1106Z
BECMG 1010/1012 02005KT
BECMG 1019/1021 VRB03KT
BECMG 1101/1103 1200 BR NSC
PROB40
TEMPO 1101/1103 0500 BCFG
PROB40 1104/1106 0500 FG VV///
ATIS : +33 5 57 92 81 04
No reported NOTAMs for that airfield.
1 SIGMET reported for the Bordeaux FIR (LFBB) :
 
Severe turbulence
LFBB SIGMET 10 VALID 092200/100200 LFPW
LFBB BORDEAUX FIR/UIR SEV TURB FCST WI N4215 E00230 - N4230 E00130 - N4345 E00245 - N4215 E00230 SFC/FL120 STNR NC=



MET'MAP, your aeronautical weather chart ! - Copyright ORBIFLY December 2007 - Disclaimer

ORBIFLY MET'MAP TEAM :

Programming & Development : Alexandra Zaïnal
Concept & Development : Baudouin d'Aumeries
Co-Development & Prog : Marc-Olivier Méhu
Technical & hardware support : Manuel Goepfert

Contact : metmap@orbifly.com




SOURCES & CREDITS :

   NOAA